createdAt,value
2022-11-03T00:02:18.131Z,22.43
2022-11-03T00:04:48.013Z,22.46
2022-11-03T00:07:24.806Z,22.51
2022-11-03T00:09:54.056Z,22.42
2022-11-03T00:12:22.929Z,22.37
2022-11-03T00:14:52.722Z,22.26
2022-11-03T00:17:21.854Z,22.15
2022-11-03T00:19:50.981Z,22.11
2022-11-03T00:22:20.162Z,22.02
2022-11-03T00:24:49.375Z,22.11
2022-11-03T00:27:18.518Z,22.09
2022-11-03T00:29:47.463Z,22.09
2022-11-03T00:32:16.626Z,22.16
2022-11-03T00:34:45.896Z,22.20
2022-11-03T00:37:14.869Z,22.17
2022-11-03T00:39:44.087Z,22.20
2022-11-03T00:42:13.246Z,22.21
2022-11-03T00:44:42.816Z,22.15
2022-11-03T00:47:11.924Z,22.05
2022-11-03T00:49:40.814Z,22.03
2022-11-03T00:52:10.082Z,22.05
2022-11-03T00:54:39.362Z,22.04
2022-11-03T00:57:08.670Z,22.03
2022-11-03T00:59:38.191Z,22.04
2022-11-03T01:02:07.504Z,22.11
2022-11-03T01:04:56.742Z,22.07
2022-11-03T01:07:30.572Z,22.15
2022-11-03T01:10:00.583Z,22.05
2022-11-03T01:12:33.245Z,22.13
2022-11-03T01:15:03.323Z,22.07
2022-11-03T01:17:34.148Z,22.11
2022-11-03T01:20:03.654Z,22.08
2022-11-03T01:22:33.050Z,22.05
2022-11-03T01:25:02.991Z,21.97
2022-11-03T01:27:32.895Z,22.00
2022-11-03T01:30:03.208Z,21.98
2022-11-03T01:32:32.910Z,22.02
2022-11-03T01:35:02.819Z,22.04
2022-11-03T01:37:32.301Z,21.98
2022-11-03T01:40:01.876Z,22.01
2022-11-03T01:42:31.787Z,22.01
2022-11-03T01:45:01.443Z,22.10
2022-11-03T01:47:34.900Z,22.20
2022-11-03T01:50:09.584Z,22.25
2022-11-03T01:53:06.287Z,22.36
2022-11-03T01:55:41.291Z,22.29
2022-11-03T01:58:19.160Z,22.40
2022-11-03T02:00:52.699Z,22.36
2022-11-03T02:03:23.823Z,22.42
2022-11-03T02:05:55.742Z,22.43
2022-11-03T02:08:37.658Z,22.60
2022-11-03T02:11:27.642Z,22.61
2022-11-03T02:13:57.209Z,22.69
2022-11-03T02:16:28.737Z,22.78
2022-11-03T02:19:00.965Z,22.82
2022-11-03T02:21:56.630Z,22.98
2022-11-03T02:25:02.881Z,23.09
2022-11-03T02:27:33.038Z,23.02
2022-11-03T02:30:02.758Z,23.11
2022-11-03T02:32:47.649Z,23.30
2022-11-03T02:35:17.696Z,23.29
2022-11-03T02:37:53.000Z,23.42
2022-11-03T02:40:31.448Z,23.62
2022-11-03T02:43:02.627Z,23.66
2022-11-03T02:45:33.013Z,23.72
2022-11-03T02:48:05.194Z,23.88
2022-11-03T02:50:36.705Z,23.99
2022-11-03T02:53:06.946Z,24.02
2022-11-03T02:55:39.137Z,23.94
2022-11-03T02:58:08.864Z,24.11
2022-11-03T03:00:52.039Z,24.25
2022-11-03T03:03:41.281Z,24.43
2022-11-03T03:06:15.432Z,24.43
2022-11-03T03:08:50.388Z,24.57
2022-11-03T03:11:38.799Z,24.54
2022-11-03T03:14:16.243Z,24.64
2022-11-03T03:17:11.083Z,24.77
2022-11-03T03:20:01.548Z,24.93
2022-11-03T03:22:35.113Z,25.15
2022-11-03T03:25:14.100Z,25.23
2022-11-03T03:27:49.053Z,25.38
2022-11-03T03:30:20.477Z,25.53
2022-11-03T03:32:52.621Z,25.46
2022-11-03T03:35:26.809Z,25.59
2022-11-03T03:38:03.400Z,25.70
2022-11-03T03:40:38.105Z,25.77
2022-11-03T03:43:12.053Z,25.79
2022-11-03T03:45:44.560Z,25.76
2022-11-03T03:48:15.340Z,25.83
2022-11-03T03:50:48.160Z,25.93
2022-11-03T03:53:21.355Z,25.93
2022-11-03T03:55:53.596Z,26.02
2022-11-03T03:58:23.762Z,25.94
2022-11-03T04:00:53.175Z,25.97
2022-11-03T04:03:26.512Z,26.19
2022-11-03T04:05:56.054Z,26.15
2022-11-03T04:08:25.580Z,26.21
2022-11-03T04:11:13.444Z,26.27
2022-11-03T04:14:01.341Z,26.33
2022-11-03T04:16:49.019Z,26.39
2022-11-03T04:19:39.247Z,26.61
2022-11-03T04:22:19.291Z,26.63
2022-11-03T04:24:51.567Z,26.77
2022-11-03T04:27:30.348Z,27.01
2022-11-03T04:30:17.597Z,27.14
2022-11-03T04:32:50.118Z,27.14
2022-11-03T04:35:28.023Z,27.25
2022-11-03T04:38:03.724Z,27.33
2022-11-03T04:40:34.389Z,27.38
2022-11-03T04:43:11.865Z,27.71
2022-11-03T04:45:41.290Z,27.83
2022-11-03T04:48:20.736Z,27.98
2022-11-03T04:50:53.447Z,27.97
2022-11-03T04:53:24.428Z,28.07
2022-11-03T04:55:55.726Z,28.18
2022-11-03T04:58:28.547Z,28.25
2022-11-03T05:01:04.298Z,28.43
2022-11-03T05:03:38.820Z,28.65
2022-11-03T05:06:21.196Z,28.70
2022-11-03T05:08:54.667Z,28.80
2022-11-03T05:11:40.255Z,28.85
2022-11-03T05:14:24.123Z,29.00
2022-11-03T05:16:55.453Z,29.03
2022-11-03T05:19:37.631Z,29.16
2022-11-03T05:22:07.464Z,29.09
2022-11-03T05:24:37.619Z,29.12
2022-11-03T05:27:14.012Z,29.22
2022-11-03T05:29:43.733Z,29.02
2022-11-03T05:32:34.950Z,29.41
2022-11-03T05:35:07.625Z,29.31
2022-11-03T05:37:37.478Z,29.36
2022-11-03T05:40:16.678Z,29.54
2022-11-03T05:42:48.388Z,29.48
2022-11-03T05:45:32.931Z,29.66
2022-11-03T05:48:28.213Z,29.67
2022-11-03T05:51:01.266Z,29.50
2022-11-03T05:53:39.688Z,29.56
2022-11-03T05:56:13.296Z,29.69
2022-11-03T05:58:45.939Z,29.77
2022-11-03T06:01:20.422Z,29.85
2022-11-03T06:03:49.883Z,29.83
2022-11-03T06:06:28.013Z,29.85
2022-11-03T06:09:04.324Z,29.87
2022-11-03T06:11:37.301Z,30.01
2022-11-03T06:14:34.277Z,30.15
2022-11-03T06:17:09.371Z,30.06
2022-11-03T06:19:50.973Z,30.15
2022-11-03T06:22:28.009Z,30.19
2022-11-03T06:25:37.698Z,30.29
2022-11-03T06:28:08.002Z,30.27
2022-11-03T06:33:22.391Z,30.29
2022-11-03T06:35:54.649Z,30.01
2022-11-03T06:38:31.522Z,30.29
2022-11-03T06:41:00.910Z,30.29
2022-11-03T06:43:43.910Z,30.53
2022-11-03T06:46:27.753Z,30.63
2022-11-03T06:49:02.546Z,30.48
2022-11-03T06:51:32.806Z,30.32
2022-11-03T06:54:04.300Z,30.52
2022-11-03T06:56:38.521Z,30.68
2022-11-03T06:59:12.016Z,30.67
2022-11-03T07:01:41.674Z,30.38
2022-11-03T07:04:22.242Z,30.58
2022-11-03T07:06:53.757Z,30.52
2022-11-03T07:09:27.557Z,30.77
2022-11-03T07:12:11.130Z,30.84
2022-11-03T07:14:45.449Z,30.92
2022-11-03T07:17:23.012Z,30.98
2022-11-03T07:19:53.488Z,30.78
2022-11-03T07:22:27.599Z,30.98
2022-11-03T07:25:05.359Z,30.88
2022-11-03T07:27:40.782Z,31.04
2022-11-03T07:30:10.047Z,30.93
2022-11-03T07:32:41.227Z,30.97
2022-11-03T07:35:19.635Z,30.96
2022-11-03T07:37:51.814Z,30.81
2022-11-03T07:40:25.187Z,31.06
2022-11-03T07:42:59.298Z,31.26
2022-11-03T07:45:40.797Z,31.23
2022-11-03T07:48:26.836Z,31.23
2022-11-03T07:51:02.391Z,31.23
2022-11-03T07:53:37.460Z,31.26
2022-11-03T07:56:26.402Z,31.49
2022-11-03T07:59:02.748Z,31.34
2022-11-03T08:02:20.069Z,31.51
2022-11-03T08:05:15.774Z,31.62
2022-11-03T08:10:52.701Z,31.62
2022-11-03T08:13:21.885Z,31.45
2022-11-03T08:15:50.862Z,31.40
2022-11-03T08:18:20.325Z,31.35
2022-11-03T08:20:49.376Z,31.37
2022-11-03T08:23:26.641Z,31.47
2022-11-03T08:25:56.908Z,31.33
2022-11-03T08:28:26.526Z,31.43
2022-11-03T08:30:56.587Z,31.30
2022-11-03T08:33:26.777Z,31.41
2022-11-03T08:35:56.394Z,31.37
2022-11-03T08:38:25.553Z,31.38
2022-11-03T08:40:56.391Z,31.33
2022-11-03T08:43:26.236Z,31.29
2022-11-03T08:45:55.561Z,31.30
2022-11-03T08:48:28.511Z,31.42
2022-11-03T08:50:57.690Z,31.39
2022-11-03T08:53:28.829Z,31.49
2022-11-03T08:55:58.593Z,31.49
2022-11-03T08:58:28.385Z,31.36
2022-11-03T09:00:57.400Z,31.60
2022-11-03T09:03:27.471Z,31.58
2022-11-03T09:05:57.613Z,31.52
2022-11-03T09:11:16.596Z,31.46
2022-11-03T09:13:46.063Z,31.54
2022-11-03T09:16:15.033Z,31.52
2022-11-03T09:18:46.696Z,31.52
2022-11-03T09:21:16.332Z,31.49
2022-11-03T09:23:45.895Z,31.50
2022-11-03T09:26:16.149Z,31.48
2022-11-03T09:28:46.561Z,31.43
2022-11-03T09:31:16.597Z,31.38
2022-11-03T09:34:22.550Z,31.60
2022-11-03T09:37:02.299Z,31.41
2022-11-03T09:39:31.589Z,31.48
2022-11-03T09:42:01.901Z,31.56
2022-11-03T09:44:35.702Z,31.58
2022-11-03T09:47:08.216Z,31.44
2022-11-03T09:49:38.122Z,31.26
2022-11-03T09:52:07.433Z,31.25
2022-11-03T09:55:01.020Z,31.29
2022-11-03T09:57:30.787Z,31.28
2022-11-03T10:00:00.128Z,31.21
2022-11-03T10:02:32.450Z,31.33
2022-11-03T10:05:09.804Z,31.27
2022-11-03T10:07:40.617Z,31.00
2022-11-03T10:10:20.308Z,31.14
2022-11-03T10:13:14.576Z,31.02
2022-11-03T10:15:44.169Z,30.95
2022-11-03T10:18:50.545Z,31.19
2022-11-03T10:21:22.051Z,30.99
2022-11-03T10:23:57.799Z,31.04
2022-11-03T10:26:27.224Z,30.81
2022-11-03T10:29:07.638Z,31.07
2022-11-03T10:31:41.579Z,30.96
2022-11-03T10:34:35.693Z,31.07
2022-11-03T10:37:26.205Z,30.99
2022-11-03T10:40:02.017Z,30.77
2022-11-03T10:42:35.837Z,30.85
2022-11-03T10:45:23.019Z,30.87
2022-11-03T10:48:03.288Z,30.91
2022-11-03T10:50:32.933Z,30.69
2022-11-03T10:53:02.980Z,30.65
2022-11-03T10:55:32.703Z,30.64
2022-11-03T10:58:40.600Z,30.76
2022-11-03T11:01:12.560Z,30.50
2022-11-03T11:03:46.468Z,30.55
2022-11-03T11:06:30.921Z,30.37
2022-11-03T11:09:07.042Z,30.45
2022-11-03T11:11:39.564Z,30.29
2022-11-03T11:14:24.629Z,30.44
2022-11-03T11:17:01.323Z,30.28
2022-11-03T11:19:31.701Z,30.13
2022-11-03T11:22:02.839Z,30.04
2022-11-03T11:24:52.092Z,30.06
2022-11-03T11:27:33.375Z,29.97
2022-11-03T11:30:06.138Z,29.80
2022-11-03T11:32:44.094Z,29.81
2022-11-03T11:35:26.253Z,29.74
2022-11-03T11:37:55.951Z,29.57
2022-11-03T11:40:28.162Z,29.57
2022-11-03T11:43:02.819Z,29.63
2022-11-03T11:46:25.894Z,29.50
2022-11-03T11:49:18.273Z,29.37
2022-11-03T11:51:48.137Z,29.14
2022-11-03T11:54:20.814Z,29.07
2022-11-03T11:56:51.590Z,28.96
2022-11-03T11:59:26.264Z,28.83
2022-11-03T12:01:58.382Z,28.64
2022-11-03T12:04:32.077Z,28.60
2022-11-03T12:07:01.670Z,28.48
2022-11-03T12:09:30.861Z,28.43
2022-11-03T12:12:08.316Z,28.45
2022-11-03T12:14:40.188Z,28.38
2022-11-03T12:17:18.336Z,28.47
2022-11-03T12:19:49.780Z,28.35
2022-11-03T12:22:25.137Z,28.36
2022-11-03T12:25:01.815Z,28.30
2022-11-03T12:27:30.816Z,28.11
2022-11-03T12:30:02.041Z,28.11
2022-11-03T12:32:33.565Z,28.01
2022-11-03T12:35:05.488Z,27.98
2022-11-03T12:37:34.593Z,27.94
2022-11-03T12:40:03.898Z,27.91
2022-11-03T12:42:33.114Z,27.84
2022-11-03T12:45:02.610Z,27.81
2022-11-03T12:47:31.784Z,27.76
2022-11-03T12:50:00.987Z,27.72
2022-11-03T12:52:30.043Z,27.71
2022-11-03T12:54:58.935Z,27.65
2022-11-03T12:57:28.935Z,27.60
2022-11-03T12:59:57.880Z,27.57
2022-11-03T13:02:27.013Z,27.48
2022-11-03T13:04:56.348Z,27.42
2022-11-03T13:07:30.377Z,27.39
2022-11-03T13:10:02.743Z,27.32
2022-11-03T13:12:37.934Z,27.33
2022-11-03T13:15:09.605Z,27.34
2022-11-03T13:18:07.179Z,27.20
2022-11-03T13:20:28.576Z,27.12
2022-11-03T13:22:57.606Z,27.09
2022-11-03T13:25:27.502Z,27.11
2022-11-03T13:27:58.223Z,27.13
2022-11-03T13:30:28.560Z,27.10
2022-11-03T13:32:57.986Z,27.00
2022-11-03T13:35:27.145Z,26.97
2022-11-03T13:37:56.678Z,26.89
2022-11-03T13:43:14.844Z,26.87
2022-11-03T13:45:44.032Z,26.84
2022-11-03T13:51:03.032Z,26.76
2022-11-03T13:56:22.663Z,26.64
2022-11-03T14:01:42.440Z,26.56
2022-11-03T14:07:00.937Z,26.55
2022-11-03T14:09:30.656Z,26.50
2022-11-03T14:12:18.346Z,26.50
2022-11-03T14:14:47.557Z,26.48
2022-11-03T14:17:16.380Z,26.46
2022-11-03T14:19:50.383Z,26.48
2022-11-03T14:22:26.032Z,26.62
2022-11-03T14:24:55.214Z,26.55
2022-11-03T14:27:24.383Z,26.56
2022-11-03T14:29:53.717Z,26.54
2022-11-03T14:32:23.164Z,26.52
2022-11-03T14:34:52.547Z,26.50
2022-11-03T14:37:22.013Z,26.48
2022-11-03T14:39:51.352Z,26.46
2022-11-03T14:42:20.499Z,26.44
2022-11-03T14:44:50.448Z,26.41
2022-11-03T14:47:22.803Z,26.36
2022-11-03T14:49:52.214Z,26.22
2022-11-03T14:52:21.782Z,26.13
2022-11-03T14:54:52.114Z,26.11
2022-11-03T14:57:22.269Z,26.04
2022-11-03T14:59:53.610Z,25.95
2022-11-03T15:02:23.822Z,25.96
2022-11-03T15:04:53.065Z,25.91
2022-11-03T15:07:22.422Z,25.74
2022-11-03T15:09:54.322Z,25.80
2022-11-03T15:12:23.823Z,25.79
2022-11-03T15:14:53.726Z,25.77
2022-11-03T15:17:23.112Z,25.69
2022-11-03T15:19:53.008Z,25.62
2022-11-03T15:27:47.290Z,25.61
2022-11-03T15:30:17.768Z,25.63
2022-11-03T15:32:47.142Z,25.65
2022-11-03T15:35:16.670Z,25.61
2022-11-03T15:37:46.685Z,25.58
2022-11-03T15:40:18.432Z,25.59
2022-11-03T15:42:49.291Z,25.50
2022-11-03T15:45:19.160Z,25.52
2022-11-03T15:47:48.841Z,25.47
2022-11-03T15:50:18.322Z,25.45
2022-11-03T15:52:48.070Z,25.44
2022-11-03T15:55:17.666Z,25.38
2022-11-03T15:57:47.157Z,25.22
2022-11-03T16:00:16.951Z,25.20
2022-11-03T16:02:48.472Z,25.12
2022-11-03T16:05:24.797Z,25.11
2022-11-03T16:07:55.122Z,25.13
2022-11-03T16:10:25.670Z,25.15
2022-11-03T16:12:55.629Z,25.11
2022-11-03T16:15:24.954Z,25.11
2022-11-03T16:17:54.321Z,25.09
2022-11-03T16:20:23.768Z,25.07
2022-11-03T16:25:27.487Z,24.99
2022-11-03T16:27:56.798Z,25.00
2022-11-03T16:30:26.329Z,24.97
2022-11-03T16:32:56.000Z,25.03
2022-11-03T16:35:26.157Z,24.96
2022-11-03T16:37:55.563Z,24.93
2022-11-03T16:40:25.195Z,24.95
2022-11-03T16:42:55.744Z,24.90
2022-11-03T16:45:34.880Z,24.92
2022-11-03T16:48:06.681Z,24.89
2022-11-03T16:50:40.192Z,24.88
2022-11-03T16:53:12.498Z,24.85
2022-11-03T16:55:42.084Z,24.85
2022-11-03T16:58:11.591Z,24.79
2022-11-03T17:00:41.041Z,24.78
2022-11-03T17:03:11.107Z,24.78
2022-11-03T17:05:40.558Z,24.73
2022-11-03T17:08:31.654Z,24.68
2022-11-03T17:10:59.590Z,24.66
2022-11-03T17:13:29.752Z,24.65
2022-11-03T17:15:58.974Z,24.64
2022-11-03T17:18:28.314Z,24.63
2022-11-03T17:20:57.561Z,24.58
2022-11-03T17:23:26.772Z,24.57
2022-11-03T17:25:58.583Z,24.56
2022-11-03T17:28:30.875Z,24.52
2022-11-03T17:31:00.972Z,24.60
2022-11-03T17:33:30.391Z,24.56
2022-11-03T17:35:59.788Z,24.49
2022-11-03T17:38:29.990Z,24.52
2022-11-03T17:40:59.013Z,24.38
2022-11-03T17:43:31.152Z,24.45
2022-11-03T17:46:00.121Z,24.39
2022-11-03T17:48:29.288Z,24.40
2022-11-03T17:50:59.136Z,24.38
2022-11-03T17:53:35.247Z,24.48
2022-11-03T17:58:54.610Z,24.26
2022-11-03T18:01:26.379Z,24.35
2022-11-03T18:03:55.644Z,24.30
2022-11-03T18:06:24.562Z,24.35
2022-11-03T18:08:54.508Z,24.35
2022-11-03T18:11:48.226Z,24.45
2022-11-03T18:14:18.143Z,24.33
2022-11-03T18:16:47.844Z,24.33
2022-11-03T18:19:19.000Z,24.42
2022-11-03T18:21:49.155Z,24.40
2022-11-03T18:24:21.322Z,24.38
2022-11-03T18:26:50.445Z,24.30
2022-11-03T18:29:19.615Z,24.24
2022-11-03T18:31:51.323Z,24.21
2022-11-03T18:34:26.841Z,24.21
2022-11-03T18:36:56.255Z,24.14
2022-11-03T18:39:29.137Z,24.20
2022-11-03T18:41:58.213Z,24.16
2022-11-03T18:44:31.725Z,24.23
2022-11-03T18:47:00.937Z,24.15
2022-11-03T18:49:34.271Z,24.15
2022-11-03T18:52:08.048Z,24.20
2022-11-03T18:54:37.488Z,24.09
2022-11-03T18:57:06.402Z,24.11
2022-11-03T18:59:38.780Z,24.16
2022-11-03T19:02:20.116Z,24.25
2022-11-03T19:04:49.627Z,24.09
2022-11-03T19:07:27.320Z,24.21
2022-11-03T19:09:57.005Z,24.09
2022-11-03T19:12:25.894Z,24.01
2022-11-03T19:14:55.938Z,24.07
2022-11-03T19:17:26.539Z,24.11
2022-11-03T19:19:55.742Z,24.12
2022-11-03T19:22:25.495Z,24.15
2022-11-03T19:24:55.007Z,24.05
2022-11-03T19:27:29.959Z,24.12
2022-11-03T19:30:01.699Z,23.99
2022-11-03T19:32:35.198Z,23.91
2022-11-03T19:35:15.641Z,23.93
2022-11-03T19:37:44.936Z,23.89
2022-11-03T19:40:19.623Z,24.02
2022-11-03T19:42:51.051Z,23.92
2022-11-03T19:45:21.736Z,23.88
2022-11-03T19:48:22.326Z,23.98
2022-11-03T19:50:46.611Z,23.77
2022-11-03T19:53:34.229Z,23.90
2022-11-03T19:56:03.611Z,23.71
2022-11-03T19:58:32.468Z,23.71
2022-11-03T20:01:07.268Z,23.76
2022-11-03T20:03:38.496Z,23.75
2022-11-03T20:06:09.244Z,23.76
2022-11-03T20:08:39.476Z,23.77
2022-11-03T20:11:08.677Z,23.64
2022-11-03T20:13:45.181Z,23.78
2022-11-03T20:16:18.712Z,23.82
2022-11-03T20:18:49.836Z,23.60
2022-11-03T20:21:21.020Z,23.72
2022-11-03T20:23:52.118Z,23.71
2022-11-03T20:26:23.972Z,23.74
2022-11-03T20:28:55.319Z,23.56
2022-11-03T20:31:24.294Z,23.62
2022-11-03T20:33:53.186Z,23.59
2022-11-03T20:36:22.527Z,23.55
2022-11-03T20:39:02.138Z,23.55
2022-11-03T20:41:32.487Z,23.51
2022-11-03T20:44:01.737Z,23.56
2022-11-03T20:46:33.964Z,23.63
2022-11-03T20:49:03.036Z,23.49
2022-11-03T20:51:38.174Z,23.42
2022-11-03T20:54:21.887Z,23.45
2022-11-03T20:56:51.189Z,23.42
2022-11-03T20:59:24.133Z,23.36
2022-11-03T21:01:54.285Z,23.31
2022-11-03T21:04:23.715Z,23.34
2022-11-03T21:06:52.730Z,23.33
2022-11-03T21:09:22.437Z,23.32
2022-11-03T21:11:53.771Z,23.38
2022-11-03T21:14:27.254Z,23.28
2022-11-03T21:17:15.020Z,23.15
2022-11-03T21:20:02.611Z,23.12
2022-11-03T21:22:56.400Z,23.16
2022-11-03T21:25:26.025Z,23.09
2022-11-03T21:27:55.896Z,23.12
2022-11-03T21:30:25.292Z,23.03
2022-11-03T21:32:54.197Z,23.04
2022-11-03T21:35:23.989Z,23.06
2022-11-03T21:37:52.919Z,22.97
2022-11-03T21:40:21.981Z,22.93
2022-11-03T21:43:09.647Z,22.92
2022-11-03T21:45:38.862Z,22.88
2022-11-03T21:48:26.574Z,22.90
2022-11-03T21:50:55.723Z,22.78
2022-11-03T21:53:24.579Z,22.83
2022-11-03T21:55:54.611Z,22.71
2022-11-03T21:58:23.793Z,22.78
2022-11-03T22:00:53.124Z,22.84
2022-11-03T22:03:22.416Z,22.84
2022-11-03T22:05:51.440Z,22.82
2022-11-03T22:08:20.555Z,22.81
2022-11-03T22:10:49.640Z,22.70
2022-11-03T22:13:18.756Z,22.69
2022-11-03T22:16:06.077Z,22.84
2022-11-03T22:18:35.856Z,22.86
2022-11-03T22:21:23.442Z,22.90
2022-11-03T22:24:10.803Z,22.90
2022-11-03T22:26:58.359Z,22.91
2022-11-03T22:29:46.134Z,22.89
2022-11-03T22:32:16.492Z,22.94
2022-11-03T22:35:03.912Z,22.91
2022-11-03T22:40:18.953Z,22.91
2022-11-03T22:43:06.603Z,22.88
2022-11-03T22:45:56.264Z,22.89
2022-11-03T22:48:28.772Z,22.90
2022-11-03T22:51:23.674Z,23.06
2022-11-03T22:54:11.791Z,22.77
2022-11-03T22:56:41.672Z,22.65
2022-11-03T22:59:10.900Z,22.68
2022-11-03T23:01:40.305Z,22.68
2022-11-03T23:04:09.556Z,22.71
2022-11-03T23:06:41.886Z,22.75
2022-11-03T23:09:12.945Z,22.72
2022-11-03T23:11:42.494Z,22.66
2022-11-03T23:14:12.640Z,22.74
2022-11-03T23:16:44.302Z,22.72
2022-11-03T23:19:33.888Z,22.69
2022-11-03T23:22:03.098Z,22.64
2022-11-03T23:24:50.375Z,22.66
2022-11-03T23:27:19.549Z,22.63
2022-11-03T23:29:48.622Z,22.59
2022-11-03T23:32:17.998Z,22.59
2022-11-03T23:34:46.830Z,22.57
2022-11-03T23:37:16.130Z,22.57
2022-11-03T23:39:45.113Z,22.51
2022-11-03T23:42:14.410Z,22.44
2022-11-03T23:45:01.764Z,22.53
2022-11-03T23:47:49.224Z,22.47
2022-11-03T23:50:18.343Z,22.47
2022-11-03T23:52:47.462Z,22.46
2022-11-03T23:55:16.522Z,22.41
2022-11-03T23:58:04.146Z,22.37
